Time;durP1;ratioP1;P1;durP2;ratioP2;P2;SDS_P1;SDS_P2;PMS_P1;PMS_P2;Temp;Humidity;BMP_temperature;BMP_pressure;BME280_temperature;BME280_humidity;BME280_pressure;Samples;Min_cycle;Max_cycle;Signal;HPM_P1;HPM_P2
2020/12/23 00:01:42;;;;;;;;;;;11.70;96.30;;;;;;5043742;28;20278;-70
2020/12/23 00:04:08;;;;;;;;;;;11.70;96.30;;;;;;5045535;28;20344;-71
2020/12/23 00:06:35;;;;;;;;;;;11.70;96.40;;;;;;5044239;28;19943;-70
2020/12/23 00:09:02;;;;;;;;;;;11.70;96.50;;;;;;5048418;28;19929;-71
2020/12/23 00:11:28;;;;;;;;;;;11.70;96.50;;;;;;5043175;28;20421;-71
2020/12/23 00:13:54;;;;;;;;;;;11.70;96.60;;;;;;5042500;28;20021;-71
2020/12/23 00:16:21;;;;;;;;;;;11.70;96.70;;;;;;5051058;28;19935;-71
2020/12/23 00:18:48;;;;;;;;;;;11.70;96.80;;;;;;5050172;28;19936;-71
2020/12/23 00:21:14;;;;;;;;;;;11.70;96.70;;;;;;5039631;28;19935;-69
2020/12/23 00:23:40;;;;;;;;;;;11.70;96.70;;;;;;5050864;28;20030;-69
2020/12/23 00:26:07;;;;;;;;;;;11.60;96.70;;;;;;5043993;28;20008;-69
2020/12/23 00:28:33;;;;;;;;;;;11.60;96.70;;;;;;5041509;28;19997;-69
2020/12/23 00:30:59;;;;;;;;;;;11.60;96.70;;;;;;5038126;28;20282;-70
2020/12/23 00:33:25;;;;;;;;;;;11.60;96.70;;;;;;5044502;28;20360;-70
2020/12/23 00:35:52;;;;;;;;;;;11.60;96.80;;;;;;5043586;28;19933;-70
2020/12/23 00:38:19;;;;;;;;;;;11.60;96.90;;;;;;5044388;28;20027;-70
2020/12/23 00:40:45;;;;;;;;;;;11.60;96.90;;;;;;5045192;28;20341;-70
2020/12/23 00:43:11;;;;;;;;;;;11.60;96.90;;;;;;5039223;28;19967;-70
2020/12/23 00:45:37;;;;;;;;;;;11.60;96.90;;;;;;5058155;28;19932;-70
2020/12/23 00:48:04;;;;;;;;;;;11.60;96.70;;;;;;5042099;28;19924;-70
2020/12/23 00:50:30;;;;;;;;;;;11.60;96.80;;;;;;5045067;28;19990;-70
2020/12/23 00:52:57;;;;;;;;;;;11.60;96.40;;;;;;5045095;28;19925;-70
2020/12/23 00:55:23;;;;;;;;;;;11.60;96.50;;;;;;5044321;28;20254;-70
2020/12/23 00:57:49;;;;;;;;;;;11.60;96.80;;;;;;5039715;28;19929;-70
2020/12/23 01:00:16;;;;;;;;;;;11.60;96.50;;;;;;5054060;28;19931;-70
2020/12/23 01:02:42;;;;;;;;;;;11.60;96.50;;;;;;5051355;28;19995;-70
2020/12/23 01:05:08;;;;;;;;;;;11.60;96.60;;;;;;5043864;28;19936;-70
2020/12/23 01:07:35;;;;;;;;;;;11.60;96.50;;;;;;5051383;28;19925;-70
2020/12/23 01:10:02;;;;;;;;;;;11.60;96.40;;;;;;5053610;28;19951;-70
2020/12/23 01:12:28;;;;;;;;;;;11.60;96.50;;;;;;5041245;28;20030;-70
2020/12/23 01:14:54;;;;;;;;;;;11.60;96.50;;;;;;5052610;28;19935;-70
2020/12/23 01:17:20;;;;;;;;;;;11.60;96.50;;;;;;5050291;28;20381;-70
2020/12/23 01:19:46;;;;;;;;;;;11.60;96.50;;;;;;5043650;28;19935;-70
2020/12/23 01:22:13;;;;;;;;;;;11.60;96.50;;;;;;5053701;28;19924;-70
2020/12/23 01:24:39;;;;;;;;;;;11.60;96.30;;;;;;5044644;28;19986;-70
2020/12/23 01:27:06;;;;;;;;;;;11.50;96.30;;;;;;5050008;28;19989;-70
2020/12/23 01:29:32;;;;;;;;;;;11.60;96.20;;;;;;5054422;28;20263;-70
2020/12/23 01:31:58;;;;;;;;;;;11.60;96.00;;;;;;5041205;28;19925;-70
2020/12/23 01:34:24;;;;;;;;;;;11.60;96.00;;;;;;5052204;28;19935;-70
2020/12/23 01:36:51;;;;;;;;;;;11.60;95.90;;;;;;5052384;28;19931;-70
2020/12/23 01:39:17;;;;;;;;;;;11.60;95.90;;;;;;5048260;28;20019;-70
2020/12/23 01:41:43;;;;;;;;;;;11.50;96.00;;;;;;5052739;28;20004;-70
2020/12/23 01:44:10;;;;;;;;;;;11.50;96.00;;;;;;5045781;28;19939;-70
2020/12/23 01:46:37;;;;;;;;;;;11.50;96.30;;;;;;5054035;28;19989;-70
2020/12/23 01:49:04;;;;;;;;;;;11.50;96.00;;;;;;5042077;28;19986;-70
2020/12/23 01:51:30;;;;;;;;;;;11.60;96.00;;;;;;5048438;28;19928;-70
2020/12/23 01:53:57;;;;;;;;;;;11.50;95.80;;;;;;5042615;28;19935;-70
2020/12/23 01:56:23;;;;;;;;;;;11.60;95.60;;;;;;5043645;28;19931;-70
2020/12/23 01:58:49;;;;;;;;;;;11.60;95.70;;;;;;5049418;28;20327;-70
2020/12/23 02:01:20;;;;;;;;;;;11.60;95.50;;;;;;5045842;28;20294;-70
2020/12/23 02:03:46;;;;;;;;;;;11.60;95.40;;;;;;5050643;28;19925;-70
2020/12/23 02:06:13;;;;;;;;;;;11.60;95.30;;;;;;5054129;28;20007;-69
2020/12/23 02:08:40;;;;;;;;;;;11.60;95.20;;;;;;5045725;28;19931;-70
2020/12/23 02:11:06;;;;;;;;;;;11.60;95.30;;;;;;5050277;28;20043;-70
2020/12/23 02:13:36;;;;;;;;;;;11.60;95.30;;;;;;5045796;28;19933;-70
2020/12/23 02:16:02;;;;;;;;;;;11.60;95.30;;;;;;5045499;28;20324;-70
2020/12/23 02:18:29;;;;;;;;;;;11.50;95.20;;;;;;5053616;28;19925;-70
2020/12/23 02:20:55;;;;;;;;;;;11.60;95.40;;;;;;5046909;28;19946;-70
2020/12/23 02:23:22;;;;;;;;;;;11.60;95.20;;;;;;5051588;28;19925;-70
2020/12/23 02:25:48;;;;;;;;;;;11.60;95.30;;;;;;5050995;28;19932;-70
2020/12/23 02:28:15;;;;;;;;;;;11.60;95.20;;;;;;5043060;28;19932;-70
2020/12/23 02:30:41;;;;;;;;;;;11.60;95.20;;;;;;5051506;28;20370;-70
2020/12/23 02:33:07;;;;;;;;;;;11.60;95.20;;;;;;5044746;28;19935;-70
2020/12/23 02:35:33;;;;;;;;;;;11.60;95.20;;;;;;5046610;28;19925;-70
2020/12/23 02:38:00;;;;;;;;;;;11.60;95.20;;;;;;5042920;28;19943;-70
2020/12/23 02:40:27;;;;;;;;;;;11.60;94.80;;;;;;5039034;28;20348;-70
2020/12/23 02:42:53;;;;;;;;;;;11.60;94.60;;;;;;5052125;28;19925;-70
2020/12/23 02:45:19;;;;;;;;;;;11.60;94.60;;;;;;5062656;28;19943;-70
2020/12/23 02:47:45;;;;;;;;;;;11.60;94.60;;;;;;5044463;28;20011;-70
2020/12/23 02:50:12;;;;;;;;;;;11.60;94.70;;;;;;5047623;28;19962;-70
2020/12/23 02:52:38;;;;;;;;;;;11.50;94.60;;;;;;5041383;28;20279;-70
2020/12/23 02:55:04;;;;;;;;;;;11.50;94.60;;;;;;5039752;28;20347;-70
2020/12/23 02:57:31;;;;;;;;;;;11.60;94.70;;;;;;5052983;28;19925;-70
2020/12/23 02:59:57;;;;;;;;;;;11.50;94.60;;;;;;5052252;28;19924;-70
2020/12/23 03:02:24;;;;;;;;;;;11.50;94.60;;;;;;5039165;28;19928;-70
2020/12/23 03:04:50;;;;;;;;;;;11.50;94.50;;;;;;5046801;28;19929;-70
2020/12/23 03:07:16;;;;;;;;;;;11.60;94.50;;;;;;5046501;28;20351;-70
2020/12/23 03:09:42;;;;;;;;;;;11.50;94.60;;;;;;5033039;28;20371;-70
2020/12/23 03:12:08;;;;;;;;;;;11.60;94.70;;;;;;5037632;28;19925;-70
2020/12/23 03:14:35;;;;;;;;;;;11.50;94.60;;;;;;5037125;28;19925;-70
2020/12/23 03:17:02;;;;;;;;;;;11.50;94.50;;;;;;5046153;28;20027;-70
2020/12/23 03:19:28;;;;;;;;;;;11.60;94.50;;;;;;5039479;28;20048;-70
2020/12/23 03:21:54;;;;;;;;;;;11.60;94.20;;;;;;5048713;28;20003;-70
2020/12/23 03:24:20;;;;;;;;;;;11.60;94.20;;;;;;5045436;28;19935;-70
2020/12/23 03:26:46;;;;;;;;;;;11.60;94.20;;;;;;5043511;28;19925;-70
2020/12/23 03:29:13;;;;;;;;;;;11.60;94.20;;;;;;5053072;28;19925;-70
2020/12/23 03:31:40;;;;;;;;;;;11.60;94.20;;;;;;5038753;28;20395;-70
2020/12/23 03:34:06;;;;;;;;;;;11.60;94.10;;;;;;5050274;28;19924;-70
2020/12/23 03:36:33;;;;;;;;;;;11.60;94.40;;;;;;5039903;28;20325;-71
2020/12/23 03:38:59;;;;;;;;;;;11.60;94.40;;;;;;5043757;28;19936;-70
2020/12/23 03:41:25;;;;;;;;;;;11.60;94.30;;;;;;5047775;28;19947;-70
2020/12/23 03:43:52;;;;;;;;;;;11.60;94.20;;;;;;5044885;28;19933;-70
2020/12/23 03:46:18;;;;;;;;;;;11.60;94.30;;;;;;5056551;28;20162;-70
2020/12/23 03:48:45;;;;;;;;;;;11.60;94.20;;;;;;5040216;28;20035;-70
2020/12/23 03:51:11;;;;;;;;;;;11.60;94.20;;;;;;5039007;28;19929;-70
2020/12/23 03:53:37;;;;;;;;;;;11.60;94.30;;;;;;5044277;28;20392;-70
2020/12/23 03:56:04;;;;;;;;;;;11.60;94.40;;;;;;5045955;28;20020;-70
2020/12/23 03:58:30;;;;;;;;;;;11.70;94.60;;;;;;5039940;28;19924;-70
2020/12/23 04:00:56;;;;;;;;;;;11.60;94.60;;;;;;5046685;28;20363;-70
2020/12/23 04:03:22;;;;;;;;;;;11.70;94.70;;;;;;5046667;28;19936;-70
2020/12/23 04:05:49;;;;;;;;;;;11.70;94.80;;;;;;5052145;28;20015;-70
2020/12/23 04:08:16;;;;;;;;;;;11.70;94.90;;;;;;5045006;28;19978;-71
2020/12/23 04:10:42;;;;;;;;;;;11.70;95.00;;;;;;5049215;28;20278;-70
2020/12/23 04:13:08;;;;;;;;;;;11.70;95.00;;;;;;5050975;28;19936;-70
2020/12/23 04:15:34;;;;;;;;;;;11.70;95.00;;;;;;5046685;28;19925;-70
2020/12/23 04:18:00;;;;;;;;;;;11.70;94.70;;;;;;5054894;28;19962;-70
2020/12/23 04:20:27;;;;;;;;;;;11.70;94.70;;;;;;5048267;28;19951;-70
2020/12/23 04:22:54;;;;;;;;;;;11.70;94.80;;;;;;5053890;28;20362;-71
2020/12/23 04:25:20;;;;;;;;;;;11.70;94.90;;;;;;5056204;28;20356;-70
2020/12/23 04:27:46;;;;;;;;;;;11.70;95.00;;;;;;5042499;28;20256;-70
2020/12/23 04:30:12;;;;;;;;;;;11.70;95.10;;;;;;5053781;28;19942;-70
2020/12/23 04:32:39;;;;;;;;;;;11.70;95.10;;;;;;5049824;28;19925;-71
2020/12/23 04:35:06;;;;;;;;;;;11.70;95.30;;;;;;5048389;28;19935;-71
2020/12/23 04:37:33;;;;;;;;;;;11.70;95.50;;;;;;5044004;28;20012;-70
2020/12/23 04:40:00;;;;;;;;;;;11.70;95.40;;;;;;5043099;28;19926;-70
2020/12/23 04:42:26;;;;;;;;;;;11.70;95.50;;;;;;5053469;28;19925;-70
2020/12/23 04:44:53;;;;;;;;;;;11.70;95.60;;;;;;5055682;28;20310;-70
2020/12/23 04:47:22;;;;;;;;;;;11.70;95.60;;;;;;5040704;28;19940;-70
2020/12/23 04:49:52;;;;;;;;;;;11.70;95.60;;;;;;5049440;28;19925;-70
2020/12/23 04:52:20;;;;;;;;;;;11.70;95.60;;;;;;5052653;28;20355;-70
2020/12/23 04:54:46;;;;;;;;;;;11.70;95.60;;;;;;5050679;28;20401;-70
2020/12/23 04:57:17;;;;;;;;;;;11.70;95.60;;;;;;5047694;28;20008;-70
2020/12/23 04:59:44;;;;;;;;;;;11.70;95.60;;;;;;5050869;28;20020;-70
2020/12/23 05:02:10;;;;;;;;;;;11.70;95.70;;;;;;5049221;28;20019;-70
2020/12/23 05:04:36;;;;;;;;;;;11.70;95.60;;;;;;5053348;28;20018;-70
2020/12/23 05:07:04;;;;;;;;;;;11.70;95.60;;;;;;5053419;28;20362;-70
2020/12/23 05:09:30;;;;;;;;;;;11.60;95.50;;;;;;5050015;28;19924;-71
2020/12/23 05:11:57;;;;;;;;;;;11.70;95.60;;;;;;5055912;28;20019;-70
2020/12/23 05:14:25;;;;;;;;;;;11.60;95.60;;;;;;5042395;28;19947;-71
2020/12/23 05:16:51;;;;;;;;;;;11.60;95.70;;;;;;5054050;28;19954;-70
2020/12/23 05:19:18;;;;;;;;;;;11.60;95.70;;;;;;5051389;28;20175;-70
2020/12/23 05:21:44;;;;;;;;;;;11.60;95.80;;;;;;5050476;28;19924;-70
2020/12/23 05:24:11;;;;;;;;;;;11.60;95.80;;;;;;5053884;28;19939;-70
2020/12/23 05:26:39;;;;;;;;;;;11.60;95.80;;;;;;5054289;28;19933;-70
2020/12/23 05:29:05;;;;;;;;;;;11.60;95.90;;;;;;5040859;28;19925;-70
2020/12/23 05:31:35;;;;;;;;;;;11.60;96.00;;;;;;5055164;28;20270;-70
2020/12/23 05:34:03;;;;;;;;;;;11.60;96.00;;;;;;5041708;28;19937;-70
2020/12/23 05:36:30;;;;;;;;;;;11.60;96.00;;;;;;5045311;28;19939;-70
2020/12/23 05:38:58;;;;;;;;;;;11.60;96.10;;;;;;5048617;28;19925;-70
2020/12/23 05:41:24;;;;;;;;;;;11.50;96.10;;;;;;5045237;28;19925;-70
2020/12/23 05:43:50;;;;;;;;;;;11.60;96.30;;;;;;5051535;28;19925;-70
2020/12/23 05:46:17;;;;;;;;;;;11.60;96.30;;;;;;5044728;28;19924;-70
2020/12/23 05:48:44;;;;;;;;;;;11.60;96.40;;;;;;5041112;28;19969;-70
2020/12/23 05:51:10;;;;;;;;;;;11.50;96.40;;;;;;5054846;28;19929;-70
2020/12/23 05:53:37;;;;;;;;;;;11.50;96.40;;;;;;5047179;28;20344;-70
2020/12/23 05:56:04;;;;;;;;;;;11.50;96.50;;;;;;5052864;28;19932;-70
2020/12/23 05:58:31;;;;;;;;;;;11.50;96.60;;;;;;5054375;28;19924;-70
2020/12/23 06:00:58;;;;;;;;;;;11.50;96.50;;;;;;5048016;28;19933;-70
2020/12/23 06:03:32;;;;;;;;;;;11.50;96.50;;;;;;5047999;28;19935;-70
2020/12/23 06:06:00;;;;;;;;;;;11.50;96.50;;;;;;5048310;28;19925;-70
2020/12/23 06:08:29;;;;;;;;;;;11.50;96.40;;;;;;5047433;28;19925;-70
2020/12/23 06:11:00;;;;;;;;;;;11.50;96.40;;;;;;5051456;28;19937;-70
2020/12/23 06:13:37;;;;;;;;;;;11.50;96.50;;;;;;5045869;28;20020;-70
2020/12/23 06:16:04;;;;;;;;;;;11.50;96.60;;;;;;5048810;28;20986;-70
2020/12/23 06:18:32;;;;;;;;;;;11.50;96.60;;;;;;5053894;28;20019;-70
2020/12/23 06:21:03;;;;;;;;;;;11.50;96.70;;;;;;5040447;28;19931;-70
2020/12/23 06:23:29;;;;;;;;;;;11.50;96.90;;;;;;5053674;28;19925;-70
2020/12/23 06:26:00;;;;;;;;;;;11.50;96.90;;;;;;5048571;28;19935;-69
2020/12/23 06:28:26;;;;;;;;;;;11.50;97.00;;;;;;5046787;28;20012;-70
2020/12/23 06:30:53;;;;;;;;;;;11.50;97.10;;;;;;5053085;28;19925;-71
2020/12/23 06:33:20;;;;;;;;;;;11.50;97.10;;;;;;5041797;28;19925;-68
2020/12/23 06:35:46;;;;;;;;;;;11.50;97.00;;;;;;5046714;28;19933;-68
2020/12/23 06:38:20;;;;;;;;;;;11.40;97.00;;;;;;5046785;28;19932;-68
2020/12/23 06:40:56;;;;;;;;;;;11.40;97.00;;;;;;5038455;28;19925;-71
2020/12/23 06:43:52;;;;;;;;;;;11.40;97.10;;;;;;5049457;28;19928;-70
2020/12/23 06:46:18;;;;;;;;;;;11.40;97.20;;;;;;5044323;28;20369;-70
2020/12/23 06:48:45;;;;;;;;;;;11.40;97.30;;;;;;5052481;28;20350;-70
2020/12/23 06:51:11;;;;;;;;;;;11.40;97.40;;;;;;5041098;28;19935;-70
2020/12/23 06:53:38;;;;;;;;;;;11.40;97.40;;;;;;5046530;28;19955;-70
2020/12/23 06:56:04;;;;;;;;;;;11.50;97.60;;;;;;5046595;28;19925;-70
2020/12/23 06:58:42;;;;;;;;;;;11.50;97.60;;;;;;5039751;28;19924;-70
2020/12/23 07:01:16;;;;;;;;;;;11.50;97.70;;;;;;5046365;28;19925;-70
2020/12/23 07:03:43;;;;;;;;;;;11.50;97.80;;;;;;5050454;28;19929;-70
2020/12/23 07:06:27;;;;;;;;;;;11.50;97.80;;;;;;5053432;28;19925;-70
2020/12/23 07:08:55;;;;;;;;;;;11.50;97.80;;;;;;5045708;28;19925;-70
2020/12/23 07:11:21;;;;;;;;;;;11.50;97.80;;;;;;5051767;28;19935;-70
2020/12/23 07:13:49;;;;;;;;;;;11.50;97.80;;;;;;5041788;28;20346;-70
2020/12/23 07:16:15;;;;;;;;;;;11.50;97.70;;;;;;5048905;28;19925;-70
2020/12/23 07:18:41;;;;;;;;;;;11.50;97.80;;;;;;5053038;28;20499;-70
2020/12/23 07:21:08;;;;;;;;;;;11.50;97.90;;;;;;5045174;28;20244;-70
2020/12/23 07:23:34;;;;;;;;;;;11.50;98.00;;;;;;5051304;28;20296;-70
2020/12/23 07:26:03;;;;;;;;;;;11.50;98.00;;;;;;5048516;28;20368;-70
2020/12/23 07:28:32;;;;;;;;;;;11.50;98.00;;;;;;5044642;28;19944;-70
2020/12/23 07:30:58;;;;;;;;;;;11.50;98.00;;;;;;5051686;28;19924;-70
2020/12/23 07:33:25;;;;;;;;;;;11.50;98.10;;;;;;5041154;28;19932;-70
2020/12/23 07:35:52;;;;;;;;;;;11.50;98.20;;;;;;5045955;28;19929;-70
2020/12/23 07:38:19;;;;;;;;;;;11.50;98.20;;;;;;5043667;28;20067;-70
2020/12/23 07:40:45;;;;;;;;;;;11.50;98.20;;;;;;5042095;28;19928;-70
2020/12/23 07:43:13;;;;;;;;;;;11.40;98.10;;;;;;5046012;28;20007;-70
2020/12/23 07:45:40;;;;;;;;;;;11.50;98.20;;;;;;5049790;28;19928;-70
2020/12/23 07:48:07;;;;;;;;;;;11.40;98.10;;;;;;5039197;28;20371;-70
2020/12/23 07:50:34;;;;;;;;;;;11.40;98.20;;;;;;5041959;28;19972;-70
2020/12/23 07:53:11;;;;;;;;;;;11.50;98.20;;;;;;5045447;28;19960;-70
2020/12/23 07:55:38;;;;;;;;;;;11.50;98.20;;;;;;5045123;28;19935;-70
2020/12/23 07:58:04;;;;;;;;;;;11.50;98.30;;;;;;5039063;28;20008;-70
2020/12/23 08:00:32;;;;;;;;;;;11.50;98.30;;;;;;5043049;28;20019;-70
2020/12/23 08:02:58;;;;;;;;;;;11.50;98.30;;;;;;5050992;28;19964;-70
2020/12/23 08:05:24;;;;;;;;;;;11.50;98.30;;;;;;5043138;28;19935;-70
2020/12/23 08:07:51;;;;;;;;;;;11.40;98.30;;;;;;5045988;28;20355;-70
2020/12/23 08:10:18;;;;;;;;;;;11.40;98.30;;;;;;5050490;28;19935;-70
2020/12/23 08:12:51;;;;;;;;;;;11.40;98.00;;;;;;5038856;28;19925;-70
2020/12/23 08:15:17;;;;;;;;;;;11.40;98.10;;;;;;5052319;28;20275;-70
2020/12/23 08:17:44;;;;;;;;;;;11.40;98.00;;;;;;5038350;28;20414;-70
2020/12/23 08:20:11;;;;;;;;;;;11.40;97.80;;;;;;5042812;28;19937;-70
2020/12/23 08:22:38;;;;;;;;;;;11.40;97.80;;;;;;5052630;28;20039;-70
2020/12/23 08:25:09;;;;;;;;;;;11.40;97.80;;;;;;5039878;28;20555;-71
2020/12/23 08:27:36;;;;;;;;;;;11.40;97.70;;;;;;5036662;28;19974;-71
2020/12/23 08:30:03;;;;;;;;;;;11.40;97.80;;;;;;5045544;28;20032;-70
2020/12/23 08:32:33;;;;;;;;;;;11.40;97.70;;;;;;5039717;28;19978;-70
2020/12/23 08:35:01;;;;;;;;;;;11.40;97.60;;;;;;5048424;28;20351;-70
2020/12/23 08:37:28;;;;;;;;;;;11.40;97.70;;;;;;5038402;28;20015;-70
2020/12/23 08:39:55;;;;;;;;;;;11.30;97.70;;;;;;5043611;28;19926;-71
2020/12/23 08:42:22;;;;;;;;;;;11.40;97.80;;;;;;5052523;28;19924;-71
2020/12/23 08:44:49;;;;;;;;;;;11.40;97.80;;;;;;5048676;28;19936;-71
2020/12/23 08:47:19;;;;;;;;;;;11.40;97.60;;;;;;5041577;28;19929;-70
2020/12/23 08:49:47;;;;;;;;;;;11.50;97.60;;;;;;5041075;28;20370;-70
2020/12/23 08:52:17;;;;;;;;;;;11.50;97.70;;;;;;5047682;28;19924;-70
2020/12/23 08:54:44;;;;;;;;;;;11.50;97.60;;;;;;5037880;28;20073;-72
2020/12/23 08:57:12;;;;;;;;;;;11.50;97.50;;;;;;5044281;28;20377;-70
2020/12/23 08:59:39;;;;;;;;;;;11.40;97.30;;;;;;5041350;28;19925;-70
2020/12/23 09:02:12;;;;;;;;;;;11.40;97.30;;;;;;5051219;28;20322;-70
2020/12/23 09:04:38;;;;;;;;;;;11.40;97.30;;;;;;5049314;28;19935;-70
2020/12/23 09:07:04;;;;;;;;;;;11.50;97.40;;;;;;5051648;28;19925;-71
2020/12/23 09:09:31;;;;;;;;;;;11.40;97.40;;;;;;5042406;28;19925;-71
2020/12/23 09:11:58;;;;;;;;;;;11.40;97.50;;;;;;5042880;28;19925;-71
2020/12/23 09:14:27;;;;;;;;;;;11.40;97.50;;;;;;5050550;28;19982;-70
2020/12/23 09:16:54;;;;;;;;;;;11.40;97.90;;;;;;5055071;28;20258;-71
2020/12/23 09:19:20;;;;;;;;;;;11.40;97.60;;;;;;5047118;28;19932;-70
2020/12/23 09:21:55;;;;;;;;;;;11.50;97.60;;;;;;5051029;28;19925;-71
2020/12/23 09:24:22;;;;;;;;;;;11.50;97.50;;;;;;5053294;28;19932;-70
2020/12/23 09:26:49;;;;;;;;;;;11.50;97.40;;;;;;5041992;28;20363;-70
2020/12/23 09:29:15;;;;;;;;;;;11.40;97.40;;;;;;5051486;28;19935;-70
2020/12/23 09:31:49;;;;;;;;;;;11.50;97.50;;;;;;5055276;28;19924;-71
2020/12/23 09:34:21;;;;;;;;;;;11.50;97.50;;;;;;5041749;28;20982;-69
2020/12/23 09:36:53;;;;;;;;;;;11.50;97.50;;;;;;5042830;28;20008;-69
2020/12/23 09:39:19;;;;;;;;;;;11.40;97.60;;;;;;5048312;28;19935;-69
2020/12/23 09:41:46;;;;;;;;;;;11.40;97.60;;;;;;5046443;28;20361;-70
2020/12/23 09:44:13;;;;;;;;;;;11.40;97.70;;;;;;5057658;28;19925;-69
2020/12/23 09:46:39;;;;;;;;;;;11.40;97.70;;;;;;5061556;28;19939;-69
2020/12/23 09:49:05;;;;;;;;;;;11.50;97.80;;;;;;5041461;28;20070;-69
2020/12/23 09:51:31;;;;;;;;;;;11.40;97.80;;;;;;5055102;28;19925;-69
2020/12/23 09:53:58;;;;;;;;;;;11.50;97.90;;;;;;5046558;28;19974;-69
2020/12/23 09:56:24;;;;;;;;;;;11.40;98.10;;;;;;5047958;28;19925;-70
2020/12/23 09:58:50;;;;;;;;;;;11.40;98.10;;;;;;5047965;28;19929;-70
2020/12/23 10:01:17;;;;;;;;;;;11.40;98.10;;;;;;5038402;28;19943;-70
2020/12/23 10:03:43;;;;;;;;;;;11.40;98.10;;;;;;5049980;28;19986;-70
2020/12/23 10:06:09;;;;;;;;;;;11.50;98.20;;;;;;5053846;28;20341;-70
2020/12/23 10:08:36;;;;;;;;;;;11.50;98.20;;;;;;5045008;28;19935;-70
2020/12/23 10:11:02;;;;;;;;;;;11.50;98.10;;;;;;5048858;28;19929;-70
2020/12/23 10:13:28;;;;;;;;;;;11.50;98.20;;;;;;5054315;28;19943;-70
2020/12/23 10:15:54;;;;;;;;;;;11.40;98.30;;;;;;5041578;28;19925;-74
2020/12/23 10:18:21;;;;;;;;;;;11.50;98.40;;;;;;5053613;28;20087;-70
2020/12/23 10:20:47;;;;;;;;;;;11.50;98.50;;;;;;5054173;28;19950;-70
2020/12/23 10:23:14;;;;;;;;;;;11.50;98.40;;;;;;5053815;28;19925;-70
2020/12/23 10:25:40;;;;;;;;;;;11.50;98.50;;;;;;5053677;28;20320;-70
2020/12/23 10:28:06;;;;;;;;;;;11.50;98.40;;;;;;5048857;28;20016;-70
2020/12/23 10:30:32;;;;;;;;;;;11.50;98.40;;;;;;5046026;28;19925;-70
2020/12/23 10:32:58;;;;;;;;;;;11.50;98.40;;;;;;5053181;28;19924;-70
2020/12/23 10:35:25;;;;;;;;;;;11.50;98.40;;;;;;5042381;28;19933;-70
2020/12/23 10:37:52;;;;;;;;;;;11.50;98.40;;;;;;5052656;28;20297;-70
2020/12/23 10:40:18;;;;;;;;;;;11.50;98.40;;;;;;5053624;28;19935;-70
2020/12/23 10:42:45;;;;;;;;;;;11.60;98.50;;;;;;5040676;28;19933;-70
2020/12/23 10:45:11;;;;;;;;;;;11.60;98.40;;;;;;5052100;28;19932;-71
2020/12/23 10:47:37;;;;;;;;;;;11.60;98.30;;;;;;5045247;28;20007;-71
2020/12/23 10:50:04;;;;;;;;;;;11.60;98.30;;;;;;5049436;28;20008;-69
2020/12/23 10:52:31;;;;;;;;;;;11.60;98.20;;;;;;5041749;28;19943;-71
2020/12/23 10:54:57;;;;;;;;;;;11.60;98.20;;;;;;5042673;28;19925;-69
2020/12/23 10:57:23;;;;;;;;;;;11.60;98.20;;;;;;5050897;28;20019;-69
2020/12/23 10:59:50;;;;;;;;;;;11.70;98.30;;;;;;5052997;28;20019;-69
2020/12/23 11:02:16;;;;;;;;;;;11.70;98.40;;;;;;5048366;28;19925;-69
2020/12/23 11:04:44;;;;;;;;;;;11.70;98.40;;;;;;5044511;28;19956;-69
2020/12/23 11:07:12;;;;;;;;;;;11.70;98.40;;;;;;5047956;28;19937;-70
2020/12/23 11:09:39;;;;;;;;;;;11.70;98.40;;;;;;5039829;28;19936;-70
2020/12/23 11:12:05;;;;;;;;;;;11.70;98.40;;;;;;5048641;28;20007;-70
2020/12/23 11:14:31;;;;;;;;;;;11.80;98.40;;;;;;5053331;28;20016;-70
2020/12/23 11:16:57;;;;;;;;;;;11.80;98.40;;;;;;5039810;28;19924;-70
2020/12/23 11:19:24;;;;;;;;;;;11.80;98.40;;;;;;5048650;28;19935;-70
2020/12/23 11:21:50;;;;;;;;;;;11.80;98.50;;;;;;5055648;28;20351;-70
2020/12/23 11:24:16;;;;;;;;;;;11.80;98.60;;;;;;5052617;28;19924;-69
2020/12/23 11:26:43;;;;;;;;;;;11.80;98.70;;;;;;5053035;28;19966;-70
2020/12/23 11:29:10;;;;;;;;;;;11.80;98.80;;;;;;5039242;28;19929;-70
2020/12/23 11:31:36;;;;;;;;;;;11.80;98.90;;;;;;5053145;28;19924;-69
2020/12/23 11:34:02;;;;;;;;;;;11.80;98.90;;;;;;5039544;28;19929;-70
2020/12/23 11:36:28;;;;;;;;;;;11.80;99.10;;;;;;5048146;28;20678;-70
2020/12/23 11:38:54;;;;;;;;;;;11.80;99.10;;;;;;5051681;28;19935;-70
2020/12/23 11:41:21;;;;;;;;;;;11.80;99.20;;;;;;5045225;28;19935;-70
2020/12/23 11:43:48;;;;;;;;;;;11.80;99.20;;;;;;5045829;28;19935;-70
2020/12/23 11:46:14;;;;;;;;;;;11.80;99.30;;;;;;5064593;28;19981;-70
2020/12/23 11:48:41;;;;;;;;;;;11.70;99.30;;;;;;5039482;28;19955;-70
2020/12/23 11:51:08;;;;;;;;;;;11.70;99.30;;;;;;5052505;28;19936;-69
2020/12/23 11:53:34;;;;;;;;;;;11.70;99.80;;;;;;5051615;28;19967;-69
2020/12/23 11:56:01;;;;;;;;;;;11.70;99.40;;;;;;5040682;28;19924;-69
2020/12/23 11:58:27;;;;;;;;;;;11.70;99.50;;;;;;5050969;28;20364;-69
2020/12/23 12:00:54;;;;;;;;;;;11.70;99.60;;;;;;5047474;28;20015;-69
2020/12/23 12:03:21;;;;;;;;;;;11.70;99.60;;;;;;5041488;28;20359;-69
2020/12/23 12:05:48;;;;;;;;;;;11.70;99.70;;;;;;5051243;28;20314;-69
2020/12/23 12:08:14;;;;;;;;;;;11.70;99.80;;;;;;5040478;28;19925;-70
2020/12/23 12:10:40;;;;;;;;;;;11.70;99.90;;;;;;5044514;28;20248;-70
2020/12/23 12:13:06;;;;;;;;;;;11.80;99.90;;;;;;5048259;28;19924;-70
2020/12/23 12:15:32;;;;;;;;;;;11.70;99.70;;;;;;5044167;28;19925;-70
2020/12/23 12:17:59;;;;;;;;;;;11.70;99.60;;;;;;5043505;28;19935;-70
2020/12/23 12:20:26;;;;;;;;;;;11.60;99.70;;;;;;5047482;28;19934;-70
2020/12/23 12:22:53;;;;;;;;;;;11.60;99.80;;;;;;5048895;28;20319;-70
2020/12/23 12:25:20;;;;;;;;;;;11.70;99.80;;;;;;5049297;28;19929;-70
2020/12/23 12:27:46;;;;;;;;;;;11.70;99.80;;;;;;5052152;28;20266;-70
2020/12/23 12:30:12;;;;;;;;;;;11.60;99.60;;;;;;5038881;28;19935;-71
2020/12/23 12:32:38;;;;;;;;;;;11.60;99.60;;;;;;5051068;28;19925;-70
2020/12/23 12:35:05;;;;;;;;;;;11.60;99.70;;;;;;5049149;28;19925;-70
2020/12/23 12:37:32;;;;;;;;;;;11.60;99.80;;;;;;5045788;28;19929;-70
2020/12/23 12:39:58;;;;;;;;;;;11.60;99.80;;;;;;5056294;28;20373;-70
2020/12/23 12:42:24;;;;;;;;;;;11.60;99.80;;;;;;5042235;28;19925;-70
2020/12/23 12:44:50;;;;;;;;;;;11.60;99.90;;;;;;5054502;28;19925;-70
2020/12/23 12:47:16;;;;;;;;;;;11.70;99.90;;;;;;5042032;28;19925;-70
2020/12/23 12:49:43;;;;;;;;;;;11.70;99.90;;;;;;5050472;28;19979;-70
2020/12/23 12:52:10;;;;;;;;;;;11.60;99.80;;;;;;5055151;28;19925;-70
2020/12/23 12:54:36;;;;;;;;;;;11.70;99.90;;;;;;5046416;28;20343;-70
2020/12/23 12:57:02;;;;;;;;;;;11.70;99.90;;;;;;5050462;28;19925;-70
2020/12/23 12:59:28;;;;;;;;;;;11.70;99.80;;;;;;5055814;28;20015;-70
2020/12/23 13:01:54;;;;;;;;;;;11.60;99.80;;;;;;5054773;28;19935;-70
2020/12/23 13:04:21;;;;;;;;;;;11.60;99.70;;;;;;5043281;28;19925;-69
2020/12/23 13:06:47;;;;;;;;;;;11.60;99.90;;;;;;5050575;28;19947;-69
2020/12/23 13:09:14;;;;;;;;;;;11.60;99.90;;;;;;5040243;28;20415;-69
2020/12/23 13:11:40;;;;;;;;;;;11.60;99.90;;;;;;5046659;28;20392;-69
2020/12/23 13:14:06;;;;;;;;;;;11.60;99.90;;;;;;5055918;28;19925;-70
2020/12/23 13:16:33;;;;;;;;;;;11.60;99.80;;;;;;5041658;28;20012;-70
2020/12/23 13:19:00;;;;;;;;;;;11.50;99.90;;;;;;5051959;28;19929;-70
2020/12/23 13:21:26;;;;;;;;;;;11.50;99.90;;;;;;5054872;28;19982;-70
2020/12/23 13:23:52;;;;;;;;;;;11.50;99.90;;;;;;5048920;28;20278;-71
2020/12/23 13:26:19;;;;;;;;;;;11.50;99.90;;;;;;5041582;28;19936;-70
2020/12/23 13:28:50;;;;;;;;;;;11.50;99.90;;;;;;5047107;28;19951;-70
2020/12/23 13:31:21;;;;;;;;;;;11.50;99.90;;;;;;5048908;28;19975;-69
2020/12/23 13:33:47;;;;;;;;;;;11.50;99.90;;;;;;5055324;28;19925;-70
2020/12/23 13:36:14;;;;;;;;;;;11.40;99.90;;;;;;5041140;28;19947;-70
2020/12/23 13:38:40;;;;;;;;;;;11.40;99.90;;;;;;5053381;28;19936;-69
2020/12/23 13:41:10;;;;;;;;;;;11.40;99.90;;;;;;5051618;28;19933;-69
2020/12/23 13:43:37;;;;;;;;;;;11.40;99.90;;;;;;5044270;28;19935;-69
2020/12/23 13:46:03;;;;;;;;;;;11.40;99.90;;;;;;5053823;28;20016;-69
2020/12/23 13:48:29;;;;;;;;;;;11.40;99.90;;;;;;5044275;28;20383;-70
2020/12/23 13:50:55;;;;;;;;;;;11.30;99.90;;;;;;5050229;28;19925;-70
2020/12/23 13:53:21;;;;;;;;;;;11.20;99.90;;;;;;5047335;28;19954;-70
2020/12/23 13:55:48;;;;;;;;;;;11.20;99.90;;;;;;5046215;28;19925;-69
2020/12/23 13:58:14;;;;;;;;;;;11.10;99.90;;;;;;5052809;28;19925;-70
2020/12/23 14:00:41;;;;;;;;;;;11.00;99.90;;;;;;5053859;28;19925;-70
2020/12/23 14:03:07;;;;;;;;;;;11.00;99.90;;;;;;5054539;28;19933;-70
2020/12/23 14:05:33;;;;;;;;;;;11.00;99.90;;;;;;5040476;28;20343;-70
2020/12/23 14:08:00;;;;;;;;;;;11.10;99.90;;;;;;5054176;28;20066;-70
2020/12/23 14:10:26;;;;;;;;;;;11.10;99.90;;;;;;5050105;28;20318;-70
2020/12/23 14:12:52;;;;;;;;;;;11.10;99.90;;;;;;5045058;28;19935;-70
2020/12/23 14:15:20;;;;;;;;;;;11.10;99.90;;;;;;5052172;28;19936;-70